Time;durP1;ratioP1;P1;durP2;ratioP2;P2;SDS_P1;SDS_P2;PMS_P1;PMS_P2;Temp;Humidity;BMP_temperature;BMP_pressure;BME280_temperature;BME280_humidity;BME280_pressure;Samples;Min_cycle;Max_cycle;Signal;HPM_P1;HPM_P2
2021/12/21 00:00:27;;;;;;;102.28;55.53;;;19.50;93.80;;;;;;4174911;28;20451;-70
2021/12/21 00:02:31;;;;;;;98.82;53.88;;;19.50;93.80;;;;;;4179589;28;20072;-71
2021/12/21 00:04:36;;;;;;;89.97;53.05;;;19.50;93.70;;;;;;4177957;28;20043;-70
2021/12/21 00:06:42;;;;;;;89.32;52.72;;;19.60;93.70;;;;;;4176947;28;20057;-73
2021/12/21 00:08:47;;;;;;;79.78;54.40;;;19.60;93.80;;;;;;4178648;28;20450;-71
2021/12/21 00:10:52;;;;;;;78.70;55.88;;;19.60;94.00;;;;;;4178186;28;20049;-71
2021/12/21 00:15:06;;;;;;;94.45;62.90;;;19.70;94.20;;;;;;4177316;28;20685;-72
2021/12/21 00:17:29;;;;;;;100.78;66.47;;;19.60;94.40;;;;;;4178659;28;20049;-70
2021/12/21 00:19:52;;;;;;;95.00;62.20;;;19.60;94.50;;;;;;4171772;28;20052;-71
2021/12/21 00:22:05;;;;;;;90.20;59.42;;;19.70;94.50;;;;;;4177303;28;20111;-70
2021/12/21 00:24:14;;;;;;;90.68;59.67;;;19.70;94.50;;;;;;4176760;28;20077;-71
2021/12/21 00:26:20;;;;;;;88.68;59.63;;;19.70;94.70;;;;;;4178014;28;20495;-71
2021/12/21 00:28:25;;;;;;;89.40;57.55;;;19.70;94.60;;;;;;4161156;28;20076;-69
2021/12/21 00:30:29;;;;;;;203.35;60.55;;;19.80;94.70;;;;;;4176110;28;20079;-72
2021/12/21 00:32:35;;;;;;;258.85;63.13;;;19.80;94.70;;;;;;4177915;28;20110;-70
2021/12/21 00:34:40;;;;;;;121.75;58.42;;;19.90;94.50;;;;;;4176329;28;20044;-69
2021/12/21 00:36:47;;;;;;;117.93;57.05;;;20.00;94.20;;;;;;4177571;28;20316;-72
2021/12/21 00:38:53;;;;;;;121.97;59.05;;;20.00;94.20;;;;;;4170098;28;20484;-71
2021/12/21 00:40:57;;;;;;;106.72;62.88;;;20.10;94.20;;;;;;4174567;28;20124;-71
2021/12/21 00:43:02;;;;;;;114.85;71.13;;;20.10;94.50;;;;;;4175651;28;20049;-71
2021/12/21 00:45:07;;;;;;;114.35;71.75;;;20.10;94.20;;;;;;4177224;28;20132;-71
2021/12/21 00:47:14;;;;;;;89.68;57.17;;;20.20;93.90;;;;;;4177888;28;20495;-70
2021/12/21 00:49:20;;;;;;;78.82;52.22;;;20.00;93.70;;;;;;4175283;28;20103;-69
2021/12/21 00:51:26;;;;;;;72.35;47.78;;;20.20;93.40;;;;;;4176665;28;20057;-70
2021/12/21 00:53:33;;;;;;;73.43;46.97;;;20.10;92.90;;;;;;4177502;28;20087;-71
2021/12/21 00:55:37;;;;;;;62.60;46.33;;;20.10;93.00;;;;;;4175157;28;20511;-72
2021/12/21 00:57:42;;;;;;;63.92;43.15;;;20.20;92.50;;;;;;4177079;28;20103;-70
2021/12/21 00:59:46;;;;;;;62.10;42.78;;;20.10;92.50;;;;;;4182167;28;20045;-70
2021/12/21 01:01:50;;;;;;;69.38;44.17;;;20.20;92.40;;;;;;4176523;28;20441;-70
2021/12/21 01:03:56;;;;;;;66.68;43.50;;;20.30;92.20;;;;;;4174448;28;20056;-70
2021/12/21 01:08:20;;;;;;;73.90;52.78;;;20.50;92.20;;;;;;4176552;28;20405;-71
2021/12/21 01:17:19;;;;;;;62.33;44.78;;;20.50;91.90;;;;;;4168925;28;20131;-71
2021/12/21 01:19:31;;;;;;;64.22;45.25;;;20.60;91.60;;;;;;4175017;28;20072;-70
2021/12/21 01:21:44;;;;;;;62.83;42.27;;;20.60;91.70;;;;;;4177062;28;20050;-71
2021/12/21 01:24:03;;;;;;;63.75;43.00;;;20.70;91.60;;;;;;4176328;28;20318;-73
2021/12/21 01:26:16;;;;;;;64.20;42.80;;;20.70;91.80;;;;;;4169132;28;20164;-71
2021/12/21 01:30:57;;;;;;;64.30;41.50;;;20.80;91.50;;;;;;4175987;28;20049;-72
2021/12/21 01:35:20;;;;;;;57.15;38.78;;;20.90;91.50;;;;;;4174607;28;20086;-70
2021/12/21 01:50:52;;;;;;;56.42;34.65;;;21.30;91.00;;;;;;4174033;28;20465;-72
2021/12/21 01:52:56;;;;;;;58.28;34.50;;;21.30;90.60;;;;;;4173853;28;20048;-71
2021/12/21 01:55:01;;;;;;;49.25;34.45;;;21.30;90.70;;;;;;4168776;28;20171;-72
2021/12/21 01:57:06;;;;;;;51.03;33.33;;;21.40;90.90;;;;;;4174064;28;20043;-70
2021/12/21 01:59:10;;;;;;;49.30;32.33;;;21.40;90.40;;;;;;4175928;28;20037;-69
2021/12/21 02:01:18;;;;;;;45.92;31.67;;;21.50;90.60;;;;;;4158355;28;20053;-70
2021/12/21 02:03:23;;;;;;;41.80;31.75;;;21.50;90.40;;;;;;4176159;28;20046;-69
2021/12/21 02:05:27;;;;;;;53.33;36.80;;;21.50;90.20;;;;;;4175528;28;20060;-69
2021/12/21 02:07:32;;;;;;;134.15;100.05;;;21.50;90.10;;;;;;4175099;28;20071;-69
2021/12/21 02:09:38;;;;;;;153.23;115.97;;;21.50;90.00;;;;;;4175448;28;20399;-69
2021/12/21 02:11:43;;;;;;;58.40;42.22;;;21.50;89.90;;;;;;4173267;28;20055;-69
2021/12/21 02:13:50;;;;;;;62.63;47.20;;;21.50;89.20;;;;;;4168681;28;20099;-70
2021/12/21 02:15:54;;;;;;;58.67;42.38;;;21.50;89.50;;;;;;4168295;28;20143;-69
2021/12/21 02:22:21;;;;;;;44.65;31.40;;;21.70;90.00;;;;;;4175868;28;20064;-68
2021/12/21 02:24:37;;;;;;;42.25;29.70;;;21.70;89.70;;;;;;4176048;28;20044;-69
2021/12/21 02:26:50;;;;;;;39.45;27.15;;;21.80;89.60;;;;;;4175509;28;20094;-69
2021/12/21 02:31:11;;;;;;;35.10;24.85;;;21.80;89.30;;;;;;4175888;28;20056;-71
2021/12/21 02:33:16;;;;;;;34.33;24.25;;;21.90;87.90;;;;;;4175177;28;20463;-73
2021/12/21 02:35:21;;;;;;;37.95;24.33;;;21.90;87.50;;;;;;4157620;28;20056;-70
2021/12/21 02:37:25;;;;;;;38.65;25.67;;;21.90;87.40;;;;;;4175635;28;20438;-70
2021/12/21 02:39:29;;;;;;;36.88;25.50;;;21.90;87.80;;;;;;4174443;28;20509;-70
2021/12/21 02:41:35;;;;;;;36.55;24.88;;;21.90;88.30;;;;;;4174451;28;20080;-71
2021/12/21 02:43:40;;;;;;;38.33;25.98;;;21.90;88.30;;;;;;4175737;28;20053;-71
2021/12/21 02:45:45;;;;;;;38.13;25.40;;;22.00;87.60;;;;;;4174558;28;20041;-71
2021/12/21 02:47:49;;;;;;;38.97;26.35;;;22.00;87.80;;;;;;4174322;28;20064;-70
2021/12/21 02:49:55;;;;;;;37.30;25.80;;;22.00;88.20;;;;;;4173863;28;21290;-70
2021/12/21 02:52:02;;;;;;;35.83;25.48;;;22.10;88.10;;;;;;4175819;28;20447;-72
2021/12/21 02:54:07;;;;;;;33.17;25.13;;;22.20;88.30;;;;;;4168971;28;20056;-70
2021/12/21 02:56:12;;;;;;;36.30;25.92;;;22.30;88.10;;;;;;4166928;28;20049;-70
2021/12/21 02:58:26;;;;;;;41.88;24.42;;;22.30;87.60;;;;;;4172583;28;20500;-70
2021/12/21 03:00:31;;;;;;;36.97;25.52;;;22.30;87.20;;;;;;4179147;28;20076;-69
2021/12/21 03:02:39;;;;;;;35.03;25.27;;;22.40;88.00;;;;;;4171051;28;20049;-69
2021/12/21 03:04:45;;;;;;;38.58;25.02;;;22.40;88.50;;;;;;4174201;28;20483;-69
2021/12/21 03:09:36;;;;;;;34.42;23.80;;;22.60;87.80;;;;;;4172307;28;20052;-70
2021/12/21 03:11:48;;;;;;;33.05;23.95;;;22.60;86.80;;;;;;4176891;28;20662;-71
2021/12/21 03:14:04;;;;;;;33.75;23.85;;;22.60;86.80;;;;;;4178399;28;20140;-71
2021/12/21 03:16:09;;;;;;;38.67;23.60;;;22.70;86.80;;;;;;4176777;28;20045;-71
2021/12/21 03:18:13;;;;;;;35.85;23.58;;;22.70;86.50;;;;;;4176084;28;20049;-70
2021/12/21 03:20:18;;;;;;;36.67;24.05;;;22.80;86.40;;;;;;4175663;28;20091;-71
2021/12/21 03:22:22;;;;;;;36.50;23.50;;;22.90;86.00;;;;;;4175995;28;20049;-71
2021/12/21 03:24:26;;;;;;;32.03;21.95;;;22.90;85.60;;;;;;4175629;28;20077;-71
2021/12/21 03:26:31;;;;;;;35.08;23.50;;;22.90;85.30;;;;;;4167453;28;20037;-72
2021/12/21 03:28:37;;;;;;;36.38;23.77;;;22.90;84.80;;;;;;4174809;28;20265;-71
2021/12/21 03:30:41;;;;;;;38.55;23.80;;;23.00;85.00;;;;;;4175795;28;20040;-71
2021/12/21 03:32:46;;;;;;;33.28;22.80;;;23.00;84.50;;;;;;4175842;28;20140;-70
2021/12/21 03:34:50;;;;;;;33.40;23.45;;;23.00;83.80;;;;;;4176203;28;20045;-72
2021/12/21 03:36:55;;;;;;;39.33;23.58;;;23.10;84.40;;;;;;4177739;28;20051;-69
2021/12/21 03:39:10;;;;;;;32.70;23.30;;;23.10;84.60;;;;;;4174674;28;20055;-70
2021/12/21 03:41:16;;;;;;;31.92;23.50;;;23.20;84.40;;;;;;4175951;28;20075;-70
2021/12/21 03:43:21;;;;;;;37.58;23.05;;;23.20;84.30;;;;;;4176049;28;20049;-69
2021/12/21 03:45:25;;;;;;;34.20;24.05;;;23.30;84.30;;;;;;4140796;28;20050;-70
2021/12/21 03:47:31;;;;;;;30.83;22.83;;;23.30;84.40;;;;;;4156469;28;20527;-70
2021/12/21 03:51:51;;;;;;;36.85;22.35;;;23.40;85.00;;;;;;4156460;28;20324;-70
2021/12/21 03:53:55;;;;;;;33.65;22.70;;;23.50;85.30;;;;;;4156100;28;20045;-69
2021/12/21 03:56:18;;;;;;;36.88;23.83;;;23.50;84.40;;;;;;4156634;28;20394;-70
2021/12/21 03:58:22;;;;;;;31.80;22.17;;;23.60;84.20;;;;;;4156259;28;20510;-70
2021/12/21 04:00:28;;;;;;;31.40;21.63;;;23.60;84.30;;;;;;4155935;28;20053;-69
2021/12/21 04:02:33;;;;;;;33.72;21.50;;;23.60;84.40;;;;;;4156665;28;20045;-72
2021/12/21 04:04:38;;;;;;;35.83;22.38;;;23.70;84.00;;;;;;4156253;28;20120;-71
2021/12/21 04:06:43;;;;;;;30.63;21.85;;;23.70;83.80;;;;;;4155798;28;20076;-70
2021/12/21 04:08:47;;;;;;;34.92;23.63;;;23.80;83.70;;;;;;4156152;28;20564;-70
2021/12/21 04:10:52;;;;;;;36.83;24.17;;;23.80;82.10;;;;;;4139869;28;20049;-69
2021/12/21 04:12:56;;;;;;;33.40;23.23;;;23.80;82.40;;;;;;4139077;28;20092;-70
2021/12/21 04:15:03;;;;;;;31.13;21.45;;;23.80;82.30;;;;;;4155438;28;20045;-71
2021/12/21 04:17:07;;;;;;;35.53;23.20;;;23.90;82.40;;;;;;4169689;28;20411;-71
2021/12/21 04:19:13;;;;;;;31.88;22.88;;;24.00;82.40;;;;;;4175552;28;20163;-71
2021/12/21 04:21:18;;;;;;;33.30;21.20;;;24.00;82.60;;;;;;4174560;28;20048;-71
2021/12/21 04:23:22;;;;;;;31.13;20.38;;;24.10;82.60;;;;;;4174785;28;20053;-72
2021/12/21 04:25:26;;;;;;;28.75;19.85;;;24.10;81.20;;;;;;4173782;28;20048;-71
2021/12/21 04:27:31;;;;;;;29.55;20.10;;;24.20;80.00;;;;;;4177212;28;20045;-71
2021/12/21 04:29:35;;;;;;;31.77;20.40;;;24.10;80.60;;;;;;4176665;28;20037;-72
2021/12/21 04:31:40;;;;;;;35.13;20.85;;;24.20;81.10;;;;;;4175118;28;20458;-70
2021/12/21 04:33:45;;;;;;;37.83;21.38;;;24.40;80.40;;;;;;4176808;28;20422;-72
2021/12/21 04:35:49;;;;;;;30.30;20.15;;;24.40;80.70;;;;;;4177141;28;20208;-73
2021/12/21 04:37:58;;;;;;;31.27;20.45;;;24.40;80.90;;;;;;4175422;28;20037;-70
2021/12/21 04:40:06;;;;;;;30.92;20.65;;;24.40;81.30;;;;;;4176776;28;20132;-72
2021/12/21 04:42:14;;;;;;;30.35;19.77;;;24.40;80.90;;;;;;4159918;28;20520;-72
2021/12/21 04:44:19;;;;;;;30.80;20.35;;;24.50;81.00;;;;;;4175632;28;20475;-71
2021/12/21 04:46:24;;;;;;;33.03;21.17;;;24.50;80.10;;;;;;4177513;28;20110;-71
2021/12/21 04:48:28;;;;;;;29.67;21.15;;;24.60;79.90;;;;;;4177897;28;20132;-71
2021/12/21 04:50:33;;;;;;;37.35;20.92;;;24.50;79.50;;;;;;4176378;28;20827;-71
2021/12/21 04:52:38;;;;;;;42.45;21.02;;;24.60;79.20;;;;;;4160464;28;20530;-72
2021/12/21 04:54:42;;;;;;;35.10;21.20;;;24.60;79.30;;;;;;4177230;28;20511;-71
2021/12/21 04:56:49;;;;;;;29.70;19.88;;;24.60;80.00;;;;;;4173878;28;20392;-72
2021/12/21 04:58:53;;;;;;;32.00;20.58;;;24.80;79.10;;;;;;4177565;28;20057;-71
2021/12/21 05:00:57;;;;;;;31.08;20.80;;;24.80;78.50;;;;;;4176283;28;20336;-71
2021/12/21 05:03:02;;;;;;;29.30;20.77;;;24.80;79.10;;;;;;4177986;28;20471;-73
2021/12/21 05:05:07;;;;;;;49.10;31.75;;;24.80;80.00;;;;;;4160206;28;20159;-72
2021/12/21 05:07:16;;;;;;;54.47;33.13;;;24.90;77.70;;;;;;4177518;28;20448;-72
2021/12/21 05:09:28;;;;;;;46.10;27.00;;;25.00;77.30;;;;;;4177612;28;20517;-71
2021/12/21 05:11:36;;;;;;;37.33;22.30;;;25.00;76.70;;;;;;4174119;28;20080;-72
2021/12/21 05:13:40;;;;;;;31.88;20.55;;;25.10;76.60;;;;;;4176486;28;20525;-69
2021/12/21 05:15:44;;;;;;;28.80;19.00;;;25.10;76.30;;;;;;4177333;28;20083;-71
2021/12/21 05:17:49;;;;;;;32.20;20.80;;;25.10;75.90;;;;;;4177465;28;20830;-72
2021/12/21 05:19:53;;;;;;;28.15;20.45;;;25.20;75.40;;;;;;4177149;28;20044;-71
2021/12/21 05:22:00;;;;;;;29.58;19.98;;;25.10;75.60;;;;;;4177490;28;20060;-72
2021/12/21 05:24:05;;;;;;;27.55;20.00;;;25.10;75.90;;;;;;4176921;28;20097;-71
2021/12/21 05:26:09;;;;;;;32.65;21.23;;;25.20;75.60;;;;;;4176016;28;20099;-70
2021/12/21 05:28:14;;;;;;;37.10;22.15;;;25.20;76.20;;;;;;4176591;28;20591;-71
2021/12/21 05:30:22;;;;;;;27.38;19.38;;;25.20;76.40;;;;;;4159598;28;20435;-71
2021/12/21 05:32:26;;;;;;;31.85;20.25;;;25.40;75.90;;;;;;4177199;28;20056;-70
2021/12/21 05:34:31;;;;;;;31.83;19.42;;;25.40;75.70;;;;;;4177017;28;20061;-71
2021/12/21 05:36:37;;;;;;;34.03;19.52;;;25.40;76.10;;;;;;4176842;28;20128;-72
2021/12/21 05:38:47;;;;;;;33.83;21.02;;;25.50;76.20;;;;;;4177053;28;20060;-71
2021/12/21 05:40:53;;;;;;;27.63;20.73;;;25.60;76.30;;;;;;4175795;28;20625;-70
2021/12/21 05:42:57;;;;;;;28.67;20.40;;;25.60;75.20;;;;;;4176777;28;20041;-71
2021/12/21 05:45:02;;;;;;;30.33;21.00;;;25.70;74.90;;;;;;4177640;28;20041;-73
2021/12/21 05:47:07;;;;;;;28.45;20.55;;;25.60;75.30;;;;;;4175914;28;20049;-69
2021/12/21 05:49:11;;;;;;;30.25;19.48;;;25.60;74.60;;;;;;4176931;28;20061;-70
2021/12/21 05:51:16;;;;;;;27.30;19.00;;;25.60;74.80;;;;;;4176445;28;20503;-71
2021/12/21 05:53:20;;;;;;;24.67;17.35;;;25.60;74.80;;;;;;4173441;28;20114;-71
2021/12/21 05:55:25;;;;;;;25.83;17.80;;;25.60;73.90;;;;;;4175756;28;20503;-69
2021/12/21 05:57:29;;;;;;;29.83;17.77;;;25.60;74.10;;;;;;4174890;28;20053;-68
2021/12/21 05:59:33;;;;;;;31.55;18.13;;;25.60;74.40;;;;;;4176037;28;20447;-70
2021/12/21 06:01:38;;;;;;;24.92;18.25;;;25.90;73.40;;;;;;4175536;28;20040;-70
2021/12/21 06:03:43;;;;;;;28.38;17.92;;;25.80;73.90;;;;;;4173293;28;20045;-72
2021/12/21 06:05:48;;;;;;;26.42;17.00;;;25.80;74.10;;;;;;4175812;28;20439;-70
2021/12/21 06:07:54;;;;;;;23.88;17.23;;;25.80;74.40;;;;;;4176981;28;20080;-70
2021/12/21 06:09:59;;;;;;;29.75;19.42;;;25.90;74.20;;;;;;4175741;28;20562;-71
2021/12/21 06:12:14;;;;;;;34.60;22.73;;;26.00;73.40;;;;;;4171207;28;20060;-70
2021/12/21 06:14:48;;;;;;;30.90;21.10;;;26.00;73.50;;;;;;4176477;28;20088;-69
2021/12/21 06:25:59;;;;;;;29.02;18.50;;;26.10;73.20;;;;;;4175703;28;20103;-71
2021/12/21 06:28:05;;;;;;;33.20;23.02;;;26.10;72.90;;;;;;4175217;28;20056;-72
2021/12/21 06:30:11;;;;;;;29.00;20.00;;;26.00;73.00;;;;;;4159243;28;20061;-71
2021/12/21 06:32:16;;;;;;;24.70;19.35;;;26.10;72.90;;;;;;4175551;28;20056;-72
2021/12/21 06:34:20;;;;;;;28.90;18.70;;;26.10;72.80;;;;;;4176639;28;20366;-72
2021/12/21 06:36:25;;;;;;;29.35;18.95;;;26.10;72.80;;;;;;4174636;28;20657;-71
2021/12/21 06:38:29;;;;;;;31.65;18.95;;;26.30;73.10;;;;;;4175731;28;20044;-71
2021/12/21 06:40:33;;;;;;;28.73;19.50;;;26.30;73.00;;;;;;4174795;28;20055;-72
2021/12/21 06:42:39;;;;;;;27.20;18.15;;;26.20;72.70;;;;;;4173978;28;20700;-72
2021/12/21 06:44:47;;;;;;;24.70;17.08;;;26.30;71.80;;;;;;4177596;28;20049;-72
2021/12/21 06:47:08;;;;;;;24.63;17.23;;;26.30;71.30;;;;;;4176279;28;20045;-72
2021/12/21 06:51:41;;;;;;;23.80;15.40;;;26.20;72.80;;;;;;4175688;28;20395;-73
2021/12/21 06:53:48;;;;;;;24.05;16.02;;;26.40;71.70;;;;;;4174724;28;20060;-71
2021/12/21 06:55:52;;;;;;;24.13;16.52;;;26.50;71.50;;;;;;4181910;28;20059;-72
2021/12/21 06:57:58;;;;;;;22.52;15.48;;;26.50;71.10;;;;;;4174514;28;20463;-71
2021/12/21 07:00:03;;;;;;;20.85;15.63;;;26.40;70.60;;;;;;4175470;28;20047;-71
2021/12/21 07:02:08;;;;;;;22.48;15.15;;;26.40;70.60;;;;;;4176027;28;20076;-72
2021/12/21 07:04:14;;;;;;;25.70;15.80;;;26.40;71.00;;;;;;4173336;28;20326;-71
2021/12/21 07:06:19;;;;;;;25.25;16.15;;;26.40;71.10;;;;;;4169254;28;20774;-72
2021/12/21 07:08:28;;;;;;;22.17;15.38;;;26.50;71.20;;;;;;4174601;28;20048;-71
2021/12/21 07:10:33;;;;;;;21.15;16.10;;;26.60;70.80;;;;;;4175958;28;20060;-70
2021/12/21 07:19:17;;;;;;;23.98;15.73;;;26.60;70.20;;;;;;4172492;28;20071;-71
2021/12/21 07:21:21;;;;;;;26.63;16.73;;;26.60;70.60;;;;;;4174699;28;20646;-72
2021/12/21 07:23:26;;;;;;;24.48;16.02;;;26.60;71.10;;;;;;4174904;28;20429;-72
2021/12/21 07:25:31;;;;;;;23.15;16.65;;;26.60;71.10;;;;;;4175845;28;20326;-69
2021/12/21 07:27:35;;;;;;;29.98;16.30;;;26.60;71.40;;;;;;4177493;28;20037;-71
2021/12/21 07:29:40;;;;;;;25.48;16.58;;;26.70;70.80;;;;;;4187037;28;20131;-71
2021/12/21 07:31:45;;;;;;;24.50;16.85;;;26.70;70.90;;;;;;4181926;28;20045;-70
2021/12/21 07:33:49;;;;;;;25.00;16.15;;;26.80;71.30;;;;;;4143408;28;20037;-70
2021/12/21 07:35:54;;;;;;;29.48;17.50;;;26.70;71.50;;;;;;4176997;28;20045;-71
2021/12/21 07:38:00;;;;;;;26.55;17.45;;;26.70;71.20;;;;;;4175938;28;20078;-71
2021/12/21 07:40:05;;;;;;;26.10;17.70;;;26.70;71.30;;;;;;4181810;28;20406;-71
2021/12/21 07:42:10;;;;;;;26.48;16.75;;;26.70;71.50;;;;;;4182820;28;20052;-71
2021/12/21 07:44:14;;;;;;;24.75;17.38;;;26.70;71.30;;;;;;4177115;28;20072;-70
2021/12/21 07:46:19;;;;;;;23.48;18.02;;;26.80;71.20;;;;;;4177878;28;20041;-71
2021/12/21 07:48:24;;;;;;;27.60;18.30;;;26.90;70.10;;;;;;4179544;28;20041;-70
2021/12/21 07:50:29;;;;;;;30.38;17.88;;;26.90;70.30;;;;;;4181600;28;20055;-71
2021/12/21 07:52:34;;;;;;;30.27;18.35;;;26.90;70.30;;;;;;4181837;28;20568;-71
2021/12/21 07:54:38;;;;;;;27.50;18.00;;;26.80;70.50;;;;;;4180016;28;20045;-70
2021/12/21 07:56:43;;;;;;;22.20;17.17;;;26.80;70.00;;;;;;4181551;28;20564;-71
2021/12/21 07:58:47;;;;;;;21.40;16.35;;;26.80;70.10;;;;;;4181570;28;20376;-71
2021/12/21 08:00:52;;;;;;;25.02;17.58;;;26.80;70.40;;;;;;4181578;28;20496;-70
2021/12/21 08:02:57;;;;;;;23.33;16.98;;;26.80;70.50;;;;;;4179812;28;20235;-70
2021/12/21 08:05:05;;;;;;;26.83;17.80;;;26.80;70.50;;;;;;4180178;28;20048;-70
2021/12/21 08:07:14;;;;;;;22.13;17.15;;;26.90;70.30;;;;;;4178699;28;20049;-70
2021/12/21 08:09:19;;;;;;;24.88;18.08;;;26.90;70.00;;;;;;4180382;28;20041;-71
2021/12/21 08:13:43;;;;;;;27.45;18.52;;;26.90;70.00;;;;;;4179058;28;20045;-71
2021/12/21 08:15:48;;;;;;;28.10;18.45;;;26.90;70.20;;;;;;4178765;28;20045;-70
2021/12/21 08:17:53;;;;;;;25.20;19.48;;;26.90;70.10;;;;;;4180532;28;20511;-71
2021/12/21 08:19:57;;;;;;;26.23;18.02;;;27.00;70.10;;;;;;4179305;28;20846;-71
2021/12/21 08:22:03;;;;;;;28.40;19.27;;;26.90;70.00;;;;;;4180193;28;20583;-71
2021/12/21 08:24:09;;;;;;;26.52;18.42;;;26.80;70.30;;;;;;4179066;28;20140;-71
2021/12/21 08:26:13;;;;;;;29.13;18.75;;;26.80;69.70;;;;;;4179957;28;20059;-71
2021/12/21 08:28:18;;;;;;;27.80;18.42;;;26.90;71.00;;;;;;4180429;28;20041;-71
2021/12/21 08:30:22;;;;;;;32.63;19.42;;;26.90;70.80;;;;;;4178030;28;20056;-69
2021/12/21 08:32:26;;;;;;;24.38;18.67;;;26.90;70.10;;;;;;4179321;28;20288;-71
2021/12/21 08:34:31;;;;;;;27.92;18.50;;;26.90;69.50;;;;;;4178231;28;20079;-72
2021/12/21 08:36:36;;;;;;;29.25;18.17;;;26.90;70.30;;;;;;4180045;28;20068;-71
2021/12/21 08:38:43;;;;;;;27.20;17.85;;;26.90;70.00;;;;;;4180492;28;20037;-70
2021/12/21 08:40:50;;;;;;;26.50;17.65;;;26.90;69.30;;;;;;4177296;28;20494;-70
2021/12/21 08:42:54;;;;;;;24.77;17.52;;;26.90;69.90;;;;;;4181125;28;20045;-73
2021/12/21 08:44:59;;;;;;;25.20;18.40;;;26.90;70.30;;;;;;4179385;28;20107;-73
2021/12/21 08:47:04;;;;;;;39.05;23.20;;;26.90;70.30;;;;;;4180132;28;20049;-72
2021/12/21 08:49:08;;;;;;;26.05;17.33;;;27.00;69.90;;;;;;4174780;28;20049;-71
2021/12/21 08:51:12;;;;;;;24.88;17.65;;;27.00;68.00;;;;;;4174691;28;20512;-72
2021/12/21 08:53:17;;;;;;;24.40;17.20;;;27.00;69.00;;;;;;4174916;28;20069;-71
2021/12/21 08:55:22;;;;;;;24.25;16.92;;;26.90;69.30;;;;;;4177195;28;20033;-71
2021/12/21 08:57:28;;;;;;;24.17;17.35;;;27.00;69.20;;;;;;4179160;28;20098;-72
2021/12/21 08:59:33;;;;;;;30.05;16.70;;;27.00;69.90;;;;;;4177595;28;20049;-71
2021/12/21 09:01:37;;;;;;;33.22;17.65;;;26.90;70.10;;;;;;4178733;28;20041;-71
2021/12/21 09:03:42;;;;;;;29.75;18.25;;;26.90;70.10;;;;;;4180026;28;20045;-70
2021/12/21 09:05:47;;;;;;;23.58;18.23;;;26.90;70.10;;;;;;4179756;28;20064;-73
2021/12/21 09:07:52;;;;;;;32.00;18.45;;;26.90;69.50;;;;;;4177917;28;20044;-71
2021/12/21 09:09:56;;;;;;;28.77;17.10;;;26.90;69.80;;;;;;4179739;28;20041;-74
2021/12/21 09:12:01;;;;;;;26.33;17.60;;;26.90;69.70;;;;;;4179761;28;20049;-73
2021/12/21 09:14:06;;;;;;;29.50;19.35;;;26.90;69.70;;;;;;4178902;28;20053;-73
2021/12/21 09:16:10;;;;;;;26.58;17.50;;;26.90;69.70;;;;;;4177450;28;20037;-72
2021/12/21 09:18:15;;;;;;;26.35;16.60;;;26.80;69.50;;;;;;4180135;28;20098;-71
2021/12/21 09:20:21;;;;;;;31.65;18.27;;;26.90;69.70;;;;;;4162094;28;20033;-72
2021/12/21 09:22:26;;;;;;;28.60;19.67;;;26.90;69.90;;;;;;4179979;28;20448;-72
2021/12/21 09:24:31;;;;;;;33.05;20.17;;;26.80;70.20;;;;;;4177697;28;20032;-72
2021/12/21 09:26:36;;;;;;;29.20;19.30;;;26.80;70.30;;;;;;4181767;28;20041;-72
2021/12/21 09:28:41;;;;;;;27.73;18.40;;;26.90;70.50;;;;;;4178919;28;20395;-72
2021/12/21 09:30:46;;;;;;;30.83;19.27;;;26.80;70.30;;;;;;4179526;28;20098;-71
2021/12/21 09:32:51;;;;;;;31.35;17.45;;;26.80;69.80;;;;;;4177237;28;20053;-72
2021/12/21 09:34:56;;;;;;;26.10;18.00;;;26.80;69.50;;;;;;4180769;28;20053;-72
2021/12/21 09:37:00;;;;;;;27.55;17.25;;;26.80;69.00;;;;;;4175386;28;20668;-72
2021/12/21 09:39:04;;;;;;;28.35;16.88;;;26.80;69.70;;;;;;4178204;28;20036;-72
2021/12/21 09:41:09;;;;;;;29.88;18.30;;;26.80;68.90;;;;;;4177690;28;20037;-71
2021/12/21 09:43:17;;;;;;;31.50;17.92;;;26.80;69.60;;;;;;4180112;28;20049;-72
2021/12/21 09:45:22;;;;;;;34.38;18.27;;;26.70;69.80;;;;;;4178570;28;20395;-72
2021/12/21 09:47:27;;;;;;;35.58;18.88;;;26.70;70.00;;;;;;4179953;28;20053;-70
2021/12/21 09:49:33;;;;;;;31.88;18.45;;;26.70;70.20;;;;;;4177627;28;20106;-71
2021/12/21 09:51:40;;;;;;;30.75;19.67;;;26.70;70.50;;;;;;4179758;28;20043;-71
2021/12/21 09:53:44;;;;;;;33.45;20.67;;;26.60;71.10;;;;;;4180301;28;20422;-68
2021/12/21 09:55:49;;;;;;;31.77;20.55;;;26.60;71.30;;;;;;4179945;28;20072;-70
2021/12/21 09:57:54;;;;;;;38.08;21.27;;;26.60;71.70;;;;;;4179277;28;20053;-72
2021/12/21 09:59:59;;;;;;;36.47;20.75;;;26.60;71.70;;;;;;4179190;28;20095;-75
2021/12/21 10:02:08;;;;;;;32.20;21.20;;;26.60;72.10;;;;;;4177097;28;20418;-70
2021/12/21 10:04:12;;;;;;;35.50;25.60;;;26.60;71.40;;;;;;4178932;28;20049;-69
2021/12/21 10:06:17;;;;;;;44.15;28.88;;;26.60;72.30;;;;;;4177937;28;20312;-70
2021/12/21 10:08:22;;;;;;;70.47;36.70;;;26.60;73.00;;;;;;4178688;28;20076;-72
2021/12/21 10:10:26;;;;;;;68.53;27.77;;;26.60;73.50;;;;;;4185634;28;20578;-71
2021/12/21 10:12:33;;;;;;;30.83;23.35;;;26.60;72.70;;;;;;4175802;28;20407;-70
2021/12/21 10:14:38;;;;;;;50.90;27.13;;;26.50;72.60;;;;;;4178889;28;20052;-70
2021/12/21 10:16:43;;;;;;;66.53;42.97;;;26.50;73.50;;;;;;4177513;28;20099;-69
2021/12/21 10:18:47;;;;;;;54.38;31.13;;;26.50;75.00;;;;;;4177078;28;20474;-70
2021/12/21 10:20:52;;;;;;;55.83;26.13;;;26.60;75.00;;;;;;4180796;28;20045;-70
2021/12/21 10:22:56;;;;;;;67.75;29.15;;;26.50;75.80;;;;;;4176010;28;20036;-72
2021/12/21 10:25:01;;;;;;;59.63;28.38;;;26.60;76.50;;;;;;4178708;28;20048;-71
2021/12/21 10:27:10;;;;;;;52.83;26.25;;;26.60;76.30;;;;;;4178553;28;20052;-71
2021/12/21 10:29:15;;;;;;;67.75;27.73;;;26.60;76.00;;;;;;4179443;28;20049;-72
2021/12/21 10:31:24;;;;;;;55.90;25.00;;;26.60;76.00;;;;;;4182083;28;20048;-70
2021/12/21 10:33:30;;;;;;;48.83;23.30;;;26.50;75.80;;;;;;4178087;28;20048;-70
2021/12/21 10:35:34;;;;;;;45.53;23.60;;;26.50;75.80;;;;;;4179443;28;20491;-70
2021/12/21 10:37:40;;;;;;;48.58;24.80;;;26.50;76.20;;;;;;4171625;28;20048;-71
2021/12/21 10:39:45;;;;;;;46.58;24.65;;;26.50;76.60;;;;;;4179013;28;20483;-69
2021/12/21 10:41:51;;;;;;;68.60;28.52;;;26.50;76.80;;;;;;4181757;28;20037;-71
2021/12/21 10:44:02;;;;;;;76.07;30.85;;;26.50;77.40;;;;;;4178588;28;20036;-72
2021/12/21 10:46:07;;;;;;;78.40;35.83;;;26.50;76.90;;;;;;4178930;28;20136;-71
2021/12/21 10:48:19;;;;;;;78.00;38.45;;;26.50;77.20;;;;;;4179323;28;20118;-71
2021/12/21 10:50:24;;;;;;;86.88;38.88;;;26.40;77.00;;;;;;4177337;28;20399;-71
2021/12/21 10:52:29;;;;;;;91.70;42.92;;;26.40;77.20;;;;;;4179020;28;20048;-71
2021/12/21 10:54:40;;;;;;;83.75;41.60;;;26.40;77.40;;;;;;4158414;28;20500;-72
2021/12/21 10:56:45;;;;;;;94.63;46.58;;;26.40;77.40;;;;;;4178681;28;20392;-72
2021/12/21 10:58:49;;;;;;;133.60;54.97;;;26.40;77.50;;;;;;4179619;28;20063;-71
2021/12/21 11:01:17;;;;;;;160.25;65.57;;;26.40;77.80;;;;;;4177784;28;20103;-69
2021/12/21 11:03:45;;;;;;;190.85;77.70;;;26.40;78.10;;;;;;4177398;28;20128;-71
2021/12/21 11:05:49;;;;;;;166.63;74.22;;;26.40;78.40;;;;;;4179205;28;20124;-72
2021/12/21 11:08:04;;;;;;;150.80;64.32;;;26.30;78.70;;;;;;4179626;28;20059;-72
2021/12/21 11:10:24;;;;;;;111.43;50.85;;;26.30;79.30;;;;;;4174363;28;20147;-73
2021/12/21 11:12:48;;;;;;;100.32;46.42;;;26.20;79.90;;;;;;4174399;28;20052;-72
2021/12/21 11:14:56;;;;;;;92.88;46.42;;;26.20;80.20;;;;;;4179113;28;20238;-71
2021/12/21 11:17:02;;;;;;;111.70;53.55;;;26.20;80.30;;;;;;4173336;28;20108;-71
2021/12/21 11:19:06;;;;;;;104.88;54.92;;;26.20;80.60;;;;;;4174514;28;20048;-71
2021/12/21 11:21:11;;;;;;;112.05;57.97;;;26.20;80.60;;;;;;4176639;28;20068;-73
2021/12/21 11:23:16;;;;;;;135.23;72.57;;;26.20;80.80;;;;;;4178285;28;20620;-73
2021/12/21 11:25:21;;;;;;;130.38;74.75;;;26.20;80.90;;;;;;4179520;28;20045;-72
2021/12/21 11:27:28;;;;;;;140.32;77.47;;;26.20;81.10;;;;;;4180514;28;20037;-72
2021/12/21 11:29:34;;;;;;;145.23;74.07;;;26.10;81.40;;;;;;4174551;28;20049;-72
2021/12/21 11:31:40;;;;;;;126.90;69.75;;;26.10;81.40;;;;;;4164026;28;20049;-70
2021/12/21 11:33:46;;;;;;;145.20;71.03;;;26.10;81.50;;;;;;4146935;28;20060;-71
2021/12/21 11:38:09;;;;;;;142.30;71.13;;;26.00;81.70;;;;;;4161881;28;20068;-70
2021/12/21 11:40:16;;;;;;;132.35;65.55;;;26.00;82.00;;;;;;4163236;28;20054;-69
2021/12/21 11:42:43;;;;;;;120.50;62.88;;;26.00;82.30;;;;;;4152036;28;20415;-70